createdAt,value
2023-03-10T00:00:48.912Z,4.50
2023-03-10T00:01:48.880Z,4.38
2023-03-10T00:02:48.907Z,4.37
2023-03-10T00:03:48.858Z,4.38
2023-03-10T00:04:48.858Z,4.40
2023-03-10T00:05:48.898Z,4.37
2023-03-10T00:06:48.840Z,4.38
2023-03-10T00:07:48.810Z,4.38
2023-03-10T00:08:48.808Z,4.42
2023-03-10T00:09:48.913Z,4.40
2023-03-10T00:10:48.775Z,4.35
2023-03-10T00:11:48.804Z,4.40
2023-03-10T00:12:48.761Z,4.34
2023-03-10T00:13:48.771Z,4.34
2023-03-10T00:14:48.740Z,4.38
2023-03-10T00:15:48.750Z,4.34
2023-03-10T00:16:48.720Z,4.40
2023-03-10T00:17:48.743Z,4.31
2023-03-10T00:18:48.717Z,4.41
2023-03-10T00:19:48.697Z,4.32
2023-03-10T00:20:48.668Z,4.31
2023-03-10T00:21:48.666Z,4.30
2023-03-10T00:22:48.670Z,4.35
2023-03-10T00:23:48.867Z,4.38
2023-03-10T00:24:48.632Z,4.31
2023-03-10T00:25:48.642Z,4.40
2023-03-10T00:26:48.611Z,4.40
2023-03-10T00:27:48.601Z,4.37
2023-03-10T00:28:48.581Z,4.31
2023-03-10T00:29:48.572Z,4.22
2023-03-10T00:30:48.680Z,4.06
2023-03-10T00:31:48.556Z,4.13
2023-03-10T00:32:48.571Z,4.12
2023-03-10T00:33:48.552Z,4.20
2023-03-10T00:34:48.552Z,4.08
2023-03-10T00:35:48.622Z,4.19
2023-03-10T00:36:48.514Z,4.26
2023-03-10T00:37:48.489Z,4.32
2023-03-10T00:38:48.520Z,4.31
2023-03-10T00:39:48.473Z,4.26
2023-03-10T00:40:48.471Z,4.30
2023-03-10T00:41:48.478Z,4.30
2023-03-10T00:42:48.560Z,4.26
2023-03-10T00:43:48.442Z,4.28
2023-03-10T00:44:48.416Z,4.13
2023-03-10T00:45:48.419Z,4.19
2023-03-10T00:46:48.462Z,4.31
2023-03-10T00:47:48.418Z,4.24
2023-03-10T00:48:48.405Z,4.32
2023-03-10T00:49:48.370Z,4.40
2023-03-10T00:50:48.394Z,4.30
2023-03-10T00:51:48.343Z,4.38
2023-03-10T00:52:48.332Z,4.35
2023-03-10T00:53:48.347Z,4.35
2023-03-10T00:54:48.316Z,4.38
2023-03-10T00:55:48.313Z,4.40
2023-03-10T00:56:48.300Z,4.41
2023-03-10T00:57:48.284Z,4.41
2023-03-10T00:58:48.293Z,4.37
2023-03-10T00:59:50.632Z,4.37
2023-03-10T01:00:48.256Z,4.41
2023-03-10T01:01:48.274Z,4.35
2023-03-10T01:02:48.251Z,4.40
2023-03-10T01:03:48.225Z,4.42
2023-03-10T01:04:48.362Z,4.40
2023-03-10T01:05:48.202Z,4.38
2023-03-10T01:06:48.200Z,4.35
2023-03-10T01:07:48.169Z,4.40
2023-03-10T01:08:48.165Z,4.41
2023-03-10T01:09:48.184Z,4.37
2023-03-10T01:10:48.139Z,4.26
2023-03-10T01:11:48.140Z,4.28
2023-03-10T01:12:48.129Z,4.30
2023-03-10T01:13:48.117Z,4.31
2023-03-10T01:14:48.103Z,4.24
2023-03-10T01:15:48.166Z,4.14
2023-03-10T01:16:48.088Z,4.19
2023-03-10T01:17:48.061Z,4.26
2023-03-10T01:18:48.064Z,4.20
2023-03-10T01:19:48.050Z,3.95
2023-03-10T01:20:48.057Z,3.95
2023-03-10T01:21:48.032Z,4.04
2023-03-10T01:22:48.024Z,3.94
2023-03-10T01:23:47.997Z,4.08
2023-03-10T01:24:48.014Z,4.01
2023-03-10T01:25:47.989Z,4.13
2023-03-10T01:26:47.969Z,4.19
2023-03-10T01:27:47.982Z,4.17
2023-03-10T01:28:47.960Z,4.17
2023-03-10T01:29:47.947Z,4.26
2023-03-10T01:30:47.962Z,4.28
2023-03-10T01:31:48.004Z,4.31
2023-03-10T01:32:48.043Z,4.35
2023-03-10T01:33:47.892Z,4.38
2023-03-10T01:34:47.889Z,4.38
2023-03-10T01:35:47.948Z,4.38
2023-03-10T01:36:47.887Z,4.31
2023-03-10T01:37:47.847Z,4.31
2023-03-10T01:38:47.866Z,4.37
2023-03-10T01:39:47.873Z,4.34
2023-03-10T01:40:47.817Z,4.35
2023-03-10T01:41:47.806Z,4.38
2023-03-10T01:42:47.806Z,4.31
2023-03-10T01:43:47.784Z,4.31
2023-03-10T01:44:47.771Z,4.23
2023-03-10T01:45:47.768Z,4.10
2023-03-10T01:46:47.828Z,4.10
2023-03-10T01:47:47.748Z,4.16
2023-03-10T01:48:47.728Z,4.10
2023-03-10T01:49:47.718Z,4.14
2023-03-10T01:50:47.715Z,4.22
2023-03-10T01:51:47.738Z,4.14
2023-03-10T01:52:47.710Z,4.23
2023-03-10T01:53:47.682Z,4.32
2023-03-10T01:54:47.676Z,4.35
2023-03-10T01:55:47.652Z,4.35
2023-03-10T01:56:47.643Z,4.42
2023-03-10T01:57:47.641Z,4.45
2023-03-10T01:58:47.620Z,4.41
2023-03-10T01:59:47.620Z,4.44
2023-03-10T02:00:47.677Z,4.45
2023-03-10T02:01:47.655Z,4.49
2023-03-10T02:02:47.574Z,4.44
2023-03-10T02:03:47.588Z,4.53
2023-03-10T02:04:47.575Z,4.52
2023-03-10T02:05:47.566Z,4.55
2023-03-10T02:06:47.540Z,4.56
2023-03-10T02:07:47.529Z,4.56
2023-03-10T02:08:47.646Z,4.55
2023-03-10T02:09:47.697Z,4.53
2023-03-10T02:10:47.508Z,4.49
2023-03-10T02:11:47.483Z,4.44
2023-03-10T02:12:47.475Z,4.49
2023-03-10T02:13:47.494Z,4.50
2023-03-10T02:14:47.689Z,4.58
2023-03-10T02:15:47.436Z,4.48
2023-03-10T02:16:47.553Z,4.53
2023-03-10T02:17:47.487Z,4.52
2023-03-10T02:18:47.407Z,4.50
2023-03-10T02:19:47.439Z,4.50
2023-03-10T02:20:47.386Z,4.48
2023-03-10T02:21:47.385Z,4.44
2023-03-10T02:22:47.417Z,4.53
2023-03-10T02:23:58.757Z,4.50
2023-03-10T02:24:48.344Z,4.59
2023-03-10T02:25:47.341Z,4.55
2023-03-10T02:26:47.345Z,4.55
2023-03-10T02:27:47.308Z,4.56
2023-03-10T02:28:47.317Z,4.63
2023-03-10T02:29:58.342Z,4.62
2023-03-10T02:30:48.278Z,4.56
2023-03-10T02:31:47.323Z,4.52
2023-03-10T02:32:47.329Z,4.50
2023-03-10T02:33:47.248Z,4.44
2023-03-10T02:34:47.264Z,4.48
2023-03-10T02:35:47.272Z,4.41
2023-03-10T02:36:47.220Z,4.38
2023-03-10T02:37:47.209Z,4.37
2023-03-10T02:38:47.191Z,4.45
2023-03-10T02:39:47.178Z,4.52
2023-03-10T02:40:47.189Z,4.35
2023-03-10T02:41:47.193Z,4.35
2023-03-10T02:42:47.164Z,4.40
2023-03-10T02:43:47.150Z,4.42
2023-03-10T02:44:47.135Z,4.35
2023-03-10T02:45:47.270Z,4.40
2023-03-10T02:46:47.110Z,4.37
2023-03-10T02:47:47.099Z,4.37
2023-03-10T02:48:47.098Z,4.41
2023-03-10T02:49:47.080Z,4.45
2023-03-10T02:50:47.058Z,4.35
2023-03-10T02:51:47.058Z,4.37
2023-03-10T02:52:47.044Z,4.38
2023-03-10T02:53:47.027Z,4.38
2023-03-10T02:54:47.035Z,4.40
2023-03-10T02:55:47.093Z,4.49
2023-03-10T02:56:47.091Z,4.45
2023-03-10T02:57:47.052Z,4.42
2023-03-10T02:58:47.346Z,4.49
2023-03-10T02:59:46.964Z,4.44
2023-03-10T03:00:46.973Z,4.52
2023-03-10T03:01:46.939Z,4.58
2023-03-10T03:02:46.933Z,4.45
2023-03-10T03:03:47.105Z,4.42
2023-03-10T03:04:46.919Z,4.37
2023-03-10T03:05:46.905Z,4.40
2023-03-10T03:06:46.885Z,4.23
2023-03-10T03:07:46.887Z,4.34
2023-03-10T03:08:46.873Z,4.22
2023-03-10T03:09:46.871Z,4.30
2023-03-10T03:10:46.854Z,4.37
2023-03-10T03:11:46.866Z,4.42
2023-03-10T03:12:46.834Z,4.38
2023-03-10T03:13:46.840Z,4.34
2023-03-10T03:14:46.816Z,4.37
2023-03-10T03:15:46.790Z,4.40
2023-03-10T03:16:46.945Z,4.40
2023-03-10T03:17:46.783Z,4.42
2023-03-10T03:18:46.781Z,4.38
2023-03-10T03:19:46.764Z,4.41
2023-03-10T03:20:46.756Z,4.41
2023-03-10T03:21:46.724Z,4.40
2023-03-10T03:22:46.716Z,4.48
2023-03-10T03:23:46.729Z,4.48
2023-03-10T03:24:46.696Z,4.53
2023-03-10T03:25:46.680Z,4.52
2023-03-10T03:26:46.724Z,4.45
2023-03-10T03:27:46.669Z,4.56
2023-03-10T03:28:46.678Z,4.53
2023-03-10T03:29:46.656Z,4.55
2023-03-10T03:30:46.680Z,4.56
2023-03-10T03:31:46.674Z,4.45
2023-03-10T03:32:46.700Z,4.53
2023-03-10T03:33:46.591Z,4.53
2023-03-10T03:34:46.586Z,4.53
2023-03-10T03:35:46.672Z,4.49
2023-03-10T03:36:46.558Z,4.45
2023-03-10T03:37:46.547Z,4.38
2023-03-10T03:38:46.548Z,4.22
2023-03-10T03:39:46.623Z,4.32
2023-03-10T03:40:46.547Z,4.17
2023-03-10T03:41:46.512Z,4.32
2023-03-10T03:42:46.491Z,4.24
2023-03-10T03:43:46.504Z,4.30
2023-03-10T03:44:46.471Z,4.35
2023-03-10T03:45:46.538Z,4.28
2023-03-10T03:46:46.489Z,4.19
2023-03-10T03:47:46.471Z,4.16
2023-03-10T03:48:46.432Z,4.23
2023-03-10T03:49:46.417Z,4.19
2023-03-10T03:50:46.413Z,4.32
2023-03-10T03:51:46.422Z,4.26
2023-03-10T03:52:46.395Z,4.28
2023-03-10T03:53:46.390Z,4.37
2023-03-10T03:54:46.373Z,4.40
2023-03-10T03:55:46.387Z,4.32
2023-03-10T03:56:46.344Z,4.31
2023-03-10T03:57:46.349Z,4.42
2023-03-10T03:58:46.328Z,4.40
2023-03-10T03:59:46.311Z,4.41
2023-03-10T04:00:46.304Z,4.45
2023-03-10T04:01:46.289Z,4.48
2023-03-10T04:02:46.551Z,4.50
2023-03-10T04:03:46.371Z,4.45
2023-03-10T04:04:46.259Z,4.58
2023-03-10T04:05:46.246Z,4.52
2023-03-10T04:06:46.245Z,4.58
2023-03-10T04:07:46.240Z,4.55
2023-03-10T04:08:46.228Z,4.66
2023-03-10T04:09:47.173Z,4.63
2023-03-10T04:10:46.196Z,4.60
2023-03-10T04:11:46.192Z,4.50
2023-03-10T04:12:46.180Z,4.52
2023-03-10T04:13:46.203Z,4.53
2023-03-10T04:14:46.154Z,4.45
2023-03-10T04:15:46.190Z,4.44
2023-03-10T04:16:46.136Z,4.50
2023-03-10T04:17:46.148Z,4.52
2023-03-10T04:18:46.172Z,4.49
2023-03-10T04:19:54.205Z,4.55
2023-03-10T04:20:47.096Z,4.56
2023-03-10T04:21:46.085Z,4.58
2023-03-10T04:22:46.087Z,4.52
2023-03-10T04:23:46.074Z,4.38
2023-03-10T04:24:46.044Z,4.37
2023-03-10T04:25:46.071Z,4.41
2023-03-10T04:26:46.040Z,4.37
2023-03-10T04:27:46.018Z,4.44
2023-03-10T04:28:46.001Z,4.44
2023-03-10T04:29:46.010Z,4.45
2023-03-10T04:30:46.109Z,4.56
2023-03-10T04:31:55.836Z,4.48
2023-03-10T04:32:49.155Z,4.50
2023-03-10T04:33:45.964Z,4.48
2023-03-10T04:34:45.996Z,4.42
2023-03-10T04:35:45.991Z,4.48
2023-03-10T04:36:45.919Z,4.44
2023-03-10T04:37:45.912Z,4.48
2023-03-10T04:38:45.893Z,4.40
2023-03-10T04:39:45.887Z,4.41
2023-03-10T04:40:45.901Z,4.49
2023-03-10T04:41:45.869Z,4.58
2023-03-10T04:42:53.706Z,4.45
2023-03-10T04:43:47.774Z,4.53
2023-03-10T04:44:45.838Z,4.56
2023-03-10T04:45:45.850Z,4.58
2023-03-10T04:46:45.804Z,4.63
2023-03-10T04:47:45.800Z,4.67
2023-03-10T04:48:45.788Z,4.53
2023-03-10T04:49:45.776Z,4.56
2023-03-10T04:50:45.804Z,4.56
2023-03-10T04:51:45.758Z,4.59
2023-03-10T04:52:45.742Z,4.48
2023-03-10T04:53:45.737Z,4.48
2023-03-10T04:54:45.733Z,4.42
2023-03-10T04:55:45.739Z,4.34
2023-03-10T04:56:45.712Z,4.48
2023-03-10T04:57:45.714Z,4.48
2023-03-10T04:58:45.682Z,4.45
2023-03-10T04:59:45.687Z,4.49
2023-03-10T05:01:01.917Z,4.45
2023-03-10T05:01:46.728Z,4.42
2023-03-10T05:02:45.657Z,4.49
2023-03-10T05:03:45.634Z,4.42
2023-03-10T05:04:45.757Z,4.40
2023-03-10T05:05:45.619Z,4.35
2023-03-10T05:06:45.704Z,4.40
2023-03-10T05:07:45.582Z,4.49
2023-03-10T05:08:45.595Z,4.45
2023-03-10T05:09:45.565Z,4.48
2023-03-10T05:10:45.570Z,4.55
2023-03-10T05:11:45.548Z,4.60
2023-03-10T05:12:45.536Z,4.60
2023-03-10T05:13:45.521Z,4.62
2023-03-10T05:14:45.528Z,4.55
2023-03-10T05:15:45.550Z,4.52
2023-03-10T05:16:45.487Z,4.50
2023-03-10T05:17:47.542Z,4.58
2023-03-10T05:18:45.499Z,4.50
2023-03-10T05:19:45.449Z,4.55
2023-03-10T05:20:45.438Z,4.50
2023-03-10T05:21:45.444Z,4.62
2023-03-10T05:22:45.453Z,4.62
2023-03-10T05:23:45.404Z,4.62
2023-03-10T05:24:45.413Z,4.71
2023-03-10T05:25:45.393Z,4.73
2023-03-10T05:26:45.383Z,4.71
2023-03-10T05:27:45.386Z,4.77
2023-03-10T05:28:45.364Z,4.70
2023-03-10T05:29:45.354Z,4.75
2023-03-10T05:30:45.348Z,4.66
2023-03-10T05:31:45.382Z,4.77
2023-03-10T05:32:45.391Z,4.73
2023-03-10T05:33:45.302Z,4.82
2023-03-10T05:34:45.302Z,4.77
2023-03-10T05:35:45.336Z,4.86
2023-03-10T05:36:45.275Z,4.78
2023-03-10T05:37:45.264Z,4.82
2023-03-10T05:38:45.281Z,4.82
2023-03-10T05:39:45.238Z,4.87
2023-03-10T05:40:45.228Z,4.89
2023-03-10T05:41:45.217Z,4.92
2023-03-10T05:42:45.210Z,4.92
2023-03-10T05:43:45.192Z,4.92
2023-03-10T05:44:45.206Z,4.77
2023-03-10T05:45:45.189Z,4.77
2023-03-10T05:46:45.228Z,4.60
2023-03-10T05:47:45.156Z,4.60
2023-03-10T05:48:45.137Z,4.48
2023-03-10T05:49:45.133Z,4.55
2023-03-10T05:50:45.125Z,4.48
2023-03-10T05:51:45.133Z,4.50
2023-03-10T05:52:45.095Z,4.49
2023-03-10T05:53:45.095Z,4.59
2023-03-10T05:54:45.116Z,4.55
2023-03-10T05:55:45.096Z,4.62
2023-03-10T05:56:45.076Z,4.60
2023-03-10T05:57:45.083Z,4.66
2023-03-10T05:58:45.033Z,4.67
2023-03-10T05:59:45.027Z,4.60
2023-03-10T06:00:45.036Z,4.71
2023-03-10T06:01:45.009Z,4.75
2023-03-10T06:02:45.052Z,4.63
2023-03-10T06:03:45.226Z,4.77
2023-03-10T06:04:45.099Z,4.80
2023-03-10T06:05:44.968Z,4.96
2023-03-10T06:06:44.980Z,5.00
2023-03-10T06:07:44.933Z,5.07
2023-03-10T06:08:44.965Z,5.07
2023-03-10T06:09:44.926Z,5.18
2023-03-10T06:10:44.935Z,5.12
2023-03-10T06:11:44.916Z,5.30
2023-03-10T06:12:44.883Z,5.29
2023-03-10T06:13:44.892Z,5.28
2023-03-10T06:14:44.884Z,5.39
2023-03-10T06:15:44.866Z,5.32
2023-03-10T06:16:44.923Z,5.41
2023-03-10T06:17:44.831Z,5.46
2023-03-10T06:18:44.816Z,5.43
2023-03-10T06:19:44.806Z,5.44
2023-03-10T06:20:44.823Z,5.53
2023-03-10T06:21:44.788Z,5.46
2023-03-10T06:22:44.777Z,5.54
2023-03-10T06:23:44.782Z,5.47
2023-03-10T06:24:44.760Z,5.56
2023-03-10T06:25:44.752Z,5.54
2023-03-10T06:26:44.771Z,5.50
2023-03-10T06:27:44.727Z,5.54
2023-03-10T06:28:44.716Z,5.56
2023-03-10T06:29:44.707Z,5.57
2023-03-10T06:30:44.699Z,5.56
2023-03-10T06:31:44.723Z,5.59
2023-03-10T06:32:44.783Z,5.57
2023-03-10T06:33:44.688Z,5.61
2023-03-10T06:34:44.652Z,5.66
2023-03-10T06:35:44.763Z,5.73
2023-03-10T06:36:44.628Z,5.76
2023-03-10T06:37:44.623Z,5.98
2023-03-10T06:38:44.637Z,6.04
2023-03-10T06:39:44.602Z,6.19
2023-03-10T06:40:44.596Z,6.30
2023-03-10T06:41:44.593Z,6.41
2023-03-10T06:42:44.593Z,6.41
2023-03-10T06:43:44.553Z,6.56
2023-03-10T06:44:44.574Z,6.57
2023-03-10T06:45:44.580Z,6.60
2023-03-10T06:46:44.546Z,6.56
2023-03-10T06:47:44.740Z,6.60
2023-03-10T06:48:44.501Z,6.57
2023-03-10T06:49:44.530Z,6.75
2023-03-10T06:50:44.538Z,6.62
2023-03-10T06:51:44.491Z,6.62
2023-03-10T06:52:44.465Z,6.54
2023-03-10T06:53:44.490Z,6.52
2023-03-10T06:54:44.448Z,6.45
2023-03-10T06:55:44.488Z,6.38
2023-03-10T06:56:44.423Z,6.35
2023-03-10T06:57:44.413Z,6.22
2023-03-10T06:58:44.414Z,6.20
2023-03-10T06:59:44.444Z,6.16
2023-03-10T07:00:44.421Z,6.11
2023-03-10T07:01:44.382Z,6.02
2023-03-10T07:02:44.359Z,5.94
2023-03-10T07:03:44.342Z,5.91
2023-03-10T07:04:44.604Z,5.90
2023-03-10T07:05:44.369Z,5.94
2023-03-10T07:06:44.323Z,6.01
2023-03-10T07:07:44.309Z,5.90
2023-03-10T07:08:44.335Z,5.94
2023-03-10T07:09:44.315Z,5.93
2023-03-10T07:10:44.279Z,5.87
2023-03-10T07:11:44.250Z,5.94
2023-03-10T07:12:44.254Z,5.94
2023-03-10T07:13:44.241Z,5.89
2023-03-10T07:14:44.247Z,5.89
2023-03-10T07:15:44.256Z,5.98
2023-03-10T07:16:44.260Z,5.97
2023-03-10T07:17:44.193Z,5.93
2023-03-10T07:18:44.184Z,5.93
2023-03-10T07:19:44.191Z,5.98
2023-03-10T07:20:44.171Z,5.98
2023-03-10T07:21:44.178Z,6.09
2023-03-10T07:22:44.141Z,5.99
2023-03-10T07:23:44.121Z,6.07
2023-03-10T07:24:44.116Z,6.02
2023-03-10T07:25:44.098Z,6.04
2023-03-10T07:26:44.128Z,6.02
2023-03-10T07:27:44.107Z,6.05
2023-03-10T07:28:44.075Z,6.04
2023-03-10T07:29:44.065Z,6.16
2023-03-10T07:30:44.761Z,5.99
2023-03-10T07:31:44.048Z,6.09
2023-03-10T07:32:44.236Z,6.04
2023-03-10T07:33:44.015Z,6.12
2023-03-10T07:34:44.003Z,6.12
2023-03-10T07:35:44.050Z,6.08
2023-03-10T07:36:43.988Z,6.20
2023-03-10T07:37:43.994Z,6.22
2023-03-10T07:38:43.962Z,6.26
2023-03-10T07:39:43.986Z,6.27
2023-03-10T07:40:44.786Z,6.27
2023-03-10T07:41:43.974Z,6.27
2023-03-10T07:42:43.944Z,6.22
2023-03-10T07:43:43.924Z,6.27
2023-03-10T07:44:43.945Z,6.24
2023-03-10T07:45:43.897Z,6.31
2023-03-10T07:46:43.892Z,6.27
2023-03-10T07:47:43.877Z,6.28
2023-03-10T07:48:43.926Z,6.30
2023-03-10T07:49:43.888Z,6.24
2023-03-10T07:50:43.839Z,6.27
2023-03-10T07:51:44.066Z,6.33
2023-03-10T07:52:43.853Z,6.38
2023-03-10T07:53:43.894Z,6.42
2023-03-10T07:54:43.801Z,6.38
2023-03-10T07:55:43.799Z,6.35
2023-03-10T07:56:43.778Z,6.36
2023-03-10T07:57:43.777Z,6.51
2023-03-10T07:58:43.771Z,6.52
2023-03-10T07:59:43.751Z,6.46
2023-03-10T08:00:43.766Z,6.49
2023-03-10T08:01:43.724Z,6.49
2023-03-10T08:02:43.730Z,6.62
2023-03-10T08:03:43.730Z,6.57
2023-03-10T08:04:43.868Z,6.62
2023-03-10T08:05:43.679Z,6.64
2023-03-10T08:06:43.685Z,6.66
2023-03-10T08:07:43.697Z,6.66
2023-03-10T08:08:43.655Z,6.62
2023-03-10T08:09:43.747Z,6.75
2023-03-10T08:10:43.639Z,6.57
2023-03-10T08:11:43.621Z,6.64
2023-03-10T08:12:43.623Z,6.67
2023-03-10T08:13:43.642Z,6.78
2023-03-10T08:14:43.598Z,6.66
2023-03-10T08:15:43.640Z,6.72
2023-03-10T08:16:43.582Z,6.77
2023-03-10T08:17:43.566Z,6.84
2023-03-10T08:18:43.596Z,6.92
2023-03-10T08:19:43.541Z,6.93
2023-03-10T08:20:43.532Z,6.92
2023-03-10T08:21:43.503Z,6.95
2023-03-10T08:22:43.509Z,6.89
2023-03-10T08:23:43.509Z,6.96
2023-03-10T08:24:43.476Z,7.03
2023-03-10T08:25:43.466Z,7.03
2023-03-10T08:26:43.449Z,7.10
2023-03-10T08:27:43.465Z,7.11
2023-03-10T08:28:43.459Z,7.05
2023-03-10T08:29:43.438Z,7.13
2023-03-10T08:31:00.894Z,7.17
2023-03-10T08:31:44.485Z,7.07
2023-03-10T08:32:43.758Z,7.10
2023-03-10T08:33:43.393Z,7.07
2023-03-10T08:34:43.463Z,7.13
2023-03-10T08:35:43.395Z,7.18
2023-03-10T08:36:43.363Z,7.13
2023-03-10T08:37:44.055Z,7.03
2023-03-10T08:38:43.322Z,7.14
2023-03-10T08:39:43.313Z,7.00
2023-03-10T08:40:43.313Z,7.10
2023-03-10T08:41:43.304Z,7.18
2023-03-10T08:42:43.291Z,7.20
2023-03-10T08:43:43.264Z,7.23
2023-03-10T08:44:43.258Z,7.31
2023-03-10T08:45:43.248Z,7.31
2023-03-10T08:46:46.334Z,7.35
2023-03-10T08:47:43.244Z,7.35
2023-03-10T08:48:43.272Z,7.33
2023-03-10T08:49:46.316Z,7.40
2023-03-10T08:50:43.266Z,7.53
2023-03-10T08:51:43.193Z,7.67
2023-03-10T08:52:43.182Z,7.70
2023-03-10T08:53:43.170Z,7.70
2023-03-10T08:54:43.163Z,7.73
2023-03-10T08:55:43.167Z,7.69
2023-03-10T08:56:43.167Z,7.75
2023-03-10T08:57:43.129Z,7.77
2023-03-10T08:58:43.115Z,7.82
2023-03-10T08:59:43.102Z,7.80
2023-03-10T09:00:43.096Z,7.79
2023-03-10T09:01:43.168Z,7.91
2023-03-10T09:02:43.122Z,7.93
2023-03-10T09:03:43.068Z,8.00
2023-03-10T09:04:43.061Z,8.06
2023-03-10T09:05:43.039Z,8.12
2023-03-10T09:06:43.046Z,8.24
2023-03-10T09:07:43.092Z,8.27
2023-03-10T09:08:43.023Z,8.38
2023-03-10T09:09:43.003Z,8.71
2023-03-10T09:10:42.990Z,8.73
2023-03-10T09:11:42.984Z,8.64
2023-03-10T09:12:43.018Z,8.73
2023-03-10T09:13:42.970Z,8.73
2023-03-10T09:14:42.944Z,8.78
2023-03-10T09:15:42.932Z,8.76
2023-03-10T09:16:42.953Z,8.69
2023-03-10T09:17:42.947Z,8.67
2023-03-10T09:18:42.926Z,8.69
2023-03-10T09:19:42.891Z,8.58
2023-03-10T09:20:42.890Z,8.49
2023-03-10T09:21:42.872Z,8.46
2023-03-10T09:22:42.877Z,8.42
2023-03-10T09:23:42.856Z,8.42
2023-03-10T09:24:42.838Z,8.38
2023-03-10T09:25:42.823Z,8.78
2023-03-10T09:26:44.670Z,8.91
2023-03-10T09:27:44.831Z,8.92
2023-03-10T09:28:42.810Z,9.10
2023-03-10T09:29:43.764Z,9.10
2023-03-10T09:30:42.786Z,9.28
2023-03-10T09:31:42.818Z,9.26
2023-03-10T09:32:42.764Z,9.31
2023-03-10T09:33:42.739Z,9.43
2023-03-10T09:34:42.728Z,9.40
2023-03-10T09:35:52.513Z,9.50
2023-03-10T09:36:43.699Z,9.54
2023-03-10T09:37:42.729Z,9.56
2023-03-10T09:38:42.707Z,9.65
2023-03-10T09:39:42.686Z,9.64
2023-03-10T09:40:42.663Z,9.64
2023-03-10T09:41:42.655Z,9.65
2023-03-10T09:42:42.645Z,9.68
2023-03-10T09:43:42.655Z,9.62
2023-03-10T09:44:42.668Z,9.65
2023-03-10T09:45:42.620Z,9.66
2023-03-10T09:46:42.621Z,9.77
2023-03-10T09:47:42.590Z,9.65
2023-03-10T09:48:42.580Z,9.68
2023-03-10T09:49:42.554Z,9.62
2023-03-10T09:50:42.574Z,9.61
2023-03-10T09:51:42.545Z,9.58
2023-03-10T09:52:42.615Z,9.47
2023-03-10T09:53:42.521Z,9.46
2023-03-10T09:54:42.525Z,9.34
2023-03-10T09:55:47.843Z,9.26
2023-03-10T09:56:44.330Z,9.32
2023-03-10T09:57:42.502Z,9.26
2023-03-10T09:58:42.471Z,9.23
2023-03-10T09:59:42.478Z,9.25
2023-03-10T10:00:42.466Z,9.25
2023-03-10T10:01:42.450Z,9.08
2023-03-10T10:02:42.419Z,9.18
2023-03-10T10:03:52.184Z,9.25
2023-03-10T10:04:43.498Z,9.21
2023-03-10T10:05:42.401Z,9.23
2023-03-10T10:06:42.405Z,9.26
2023-03-10T10:07:42.389Z,9.26
2023-03-10T10:08:45.002Z,9.26
2023-03-10T10:09:43.401Z,9.31
2023-03-10T10:10:42.347Z,9.23
2023-03-10T10:11:42.340Z,9.34
2023-03-10T10:12:42.327Z,9.46
2023-03-10T10:13:43.859Z,9.44
2023-03-10T10:14:48.106Z,9.46
2023-03-10T10:15:43.280Z,9.56
2023-03-10T10:16:42.349Z,9.54
2023-03-10T10:17:52.344Z,9.56
2023-03-10T10:18:43.417Z,9.59
2023-03-10T10:19:42.238Z,9.59
2023-03-10T10:20:42.229Z,9.59
2023-03-10T10:21:43.088Z,9.64
2023-03-10T10:22:42.234Z,9.58
2023-03-10T10:23:42.184Z,9.62
2023-03-10T10:24:42.201Z,9.65
2023-03-10T10:25:42.628Z,9.62
2023-03-10T10:26:42.183Z,9.69
2023-03-10T10:27:42.145Z,9.61
2023-03-10T10:28:42.155Z,9.64
2023-03-10T10:29:42.137Z,9.50
2023-03-10T10:30:42.124Z,9.58
2023-03-10T10:31:42.104Z,9.59
2023-03-10T10:32:44.398Z,9.59
2023-03-10T10:33:43.680Z,9.58
2023-03-10T10:34:42.135Z,9.48
2023-03-10T10:35:42.184Z,9.54
2023-03-10T10:36:42.051Z,9.61
2023-03-10T10:37:42.033Z,9.56
2023-03-10T10:38:42.034Z,9.58
2023-03-10T10:39:42.021Z,9.58
2023-03-10T10:40:42.033Z,9.61
2023-03-10T10:41:42.009Z,9.69
2023-03-10T10:42:42.003Z,9.64
2023-03-10T10:43:41.976Z,9.64
2023-03-10T10:44:42.017Z,9.64
2023-03-10T10:45:42.031Z,9.72
2023-03-10T10:46:41.946Z,9.66
2023-03-10T10:47:41.943Z,9.76
2023-03-10T10:48:41.938Z,9.76
2023-03-10T10:49:41.923Z,9.79
2023-03-10T10:50:41.919Z,9.80
2023-03-10T10:51:41.912Z,9.79
2023-03-10T10:52:41.891Z,9.79
2023-03-10T10:53:41.878Z,9.76
2023-03-10T10:54:41.905Z,9.83
2023-03-10T10:55:41.862Z,9.79
2023-03-10T10:56:41.844Z,9.89
2023-03-10T10:57:41.844Z,9.84
2023-03-10T10:58:41.844Z,9.83
2023-03-10T10:59:41.811Z,9.86
2023-03-10T11:00:41.799Z,9.83
2023-03-10T11:01:41.846Z,9.79
2023-03-10T11:02:41.796Z,9.84
2023-03-10T11:03:41.767Z,9.76
2023-03-10T11:04:41.763Z,9.77
2023-03-10T11:05:41.757Z,9.84
2023-03-10T11:06:41.728Z,9.74
2023-03-10T11:07:41.747Z,9.76
2023-03-10T11:08:41.713Z,9.76
2023-03-10T11:09:41.712Z,9.66
2023-03-10T11:10:41.709Z,9.64
2023-03-10T11:11:41.701Z,9.68
2023-03-10T11:12:41.684Z,9.66
2023-03-10T11:13:41.655Z,9.62
2023-03-10T11:14:41.672Z,9.59
2023-03-10T11:15:41.722Z,9.62
2023-03-10T11:16:41.626Z,9.58
2023-03-10T11:17:41.640Z,9.56
2023-03-10T11:18:41.608Z,9.62
2023-03-10T11:19:41.601Z,9.55
2023-03-10T11:20:41.584Z,9.55
2023-03-10T11:21:41.573Z,9.48
2023-03-10T11:22:41.580Z,9.51
2023-03-10T11:23:41.554Z,9.56
2023-03-10T11:24:41.548Z,9.55
2023-03-10T11:25:41.534Z,9.56
2023-03-10T11:26:41.512Z,9.55
2023-03-10T11:27:41.517Z,9.55
2023-03-10T11:28:41.524Z,9.44
2023-03-10T11:29:41.545Z,9.58
2023-03-10T11:30:41.533Z,9.54
2023-03-10T11:31:41.478Z,9.62
2023-03-10T11:32:41.547Z,9.68
2023-03-10T11:33:41.472Z,9.61
2023-03-10T11:34:41.459Z,9.72
2023-03-10T11:35:41.476Z,9.73
2023-03-10T11:36:55.017Z,9.73
2023-03-10T11:37:42.414Z,9.74
2023-03-10T11:38:41.401Z,9.65
2023-03-10T11:39:41.398Z,9.73
2023-03-10T11:40:41.370Z,9.66
2023-03-10T11:41:41.357Z,9.66
2023-03-10T11:42:41.348Z,9.58
2023-03-10T11:43:41.344Z,9.68
2023-03-10T11:44:41.340Z,9.56
2023-03-10T11:45:41.330Z,9.61
2023-03-10T11:46:41.450Z,9.54
2023-03-10T11:47:42.066Z,9.55
2023-03-10T11:48:41.312Z,9.58
2023-03-10T11:49:41.291Z,9.50
2023-03-10T11:50:41.256Z,9.47
2023-03-10T11:51:41.251Z,9.54
2023-03-10T11:52:41.283Z,9.56
2023-03-10T11:53:41.251Z,9.47
2023-03-10T11:54:41.251Z,9.58
2023-03-10T11:55:41.210Z,9.59
2023-03-10T11:56:41.213Z,9.59
2023-03-10T11:57:41.193Z,9.51
2023-03-10T11:58:41.175Z,9.68
2023-03-10T11:59:41.183Z,9.68
2023-03-10T12:00:41.154Z,9.66
2023-03-10T12:01:41.139Z,9.69
2023-03-10T12:02:41.198Z,9.55
2023-03-10T12:03:41.154Z,9.65
2023-03-10T12:04:41.145Z,9.50
2023-03-10T12:05:41.231Z,9.58
2023-03-10T12:06:41.095Z,9.59
2023-03-10T12:07:41.086Z,9.58
2023-03-10T12:08:41.082Z,9.56
2023-03-10T12:09:41.076Z,9.44
2023-03-10T12:10:41.078Z,9.46
2023-03-10T12:11:41.040Z,9.37
2023-03-10T12:12:41.024Z,9.39
2023-03-10T12:13:41.036Z,9.39
2023-03-10T12:14:41.006Z,9.43
2023-03-10T12:15:41.055Z,9.37
2023-03-10T12:16:40.986Z,9.47
2023-03-10T12:17:40.974Z,9.39
2023-03-10T12:18:40.996Z,9.56
2023-03-10T12:19:40.973Z,9.54
2023-03-10T12:20:40.955Z,9.64
2023-03-10T12:21:40.944Z,9.55
2023-03-10T12:22:40.941Z,9.55
2023-03-10T12:23:40.909Z,9.68
2023-03-10T12:24:40.888Z,9.65
2023-03-10T12:25:40.905Z,9.73
2023-03-10T12:26:40.897Z,9.77
2023-03-10T12:27:40.865Z,9.62
2023-03-10T12:28:40.858Z,9.74
2023-03-10T12:29:40.864Z,9.73
2023-03-10T12:30:40.821Z,9.76
2023-03-10T12:31:40.946Z,9.82
2023-03-10T12:32:40.918Z,9.83
2023-03-10T12:33:40.807Z,9.72
2023-03-10T12:34:40.816Z,9.72
2023-03-10T12:35:40.803Z,9.69
2023-03-10T12:36:40.785Z,9.51
2023-03-10T12:37:40.774Z,9.54
2023-03-10T12:38:40.735Z,9.58
2023-03-10T12:39:40.748Z,9.44
2023-03-10T12:40:40.722Z,9.40
2023-03-10T12:41:40.726Z,9.44
2023-03-10T12:42:40.712Z,9.47
2023-03-10T12:43:40.699Z,9.47
2023-03-10T12:44:40.671Z,9.40
2023-03-10T12:45:40.662Z,9.56
2023-03-10T12:46:40.729Z,9.64
2023-03-10T12:47:40.679Z,9.69
2023-03-10T12:48:40.637Z,9.74
2023-03-10T12:49:40.638Z,9.83
2023-03-10T12:50:40.636Z,9.83
2023-03-10T12:51:40.613Z,9.92
2023-03-10T12:52:40.627Z,10.02
2023-03-10T12:53:40.592Z,10.04
2023-03-10T12:54:40.597Z,10.20
2023-03-10T12:55:40.556Z,10.20
2023-03-10T12:56:40.569Z,10.37
2023-03-10T12:57:40.545Z,10.35
2023-03-10T12:58:40.560Z,10.57
2023-03-10T12:59:40.533Z,10.67
2023-03-10T13:00:40.613Z,10.67
2023-03-10T13:01:43.302Z,10.75
2023-03-10T13:02:40.536Z,10.81
2023-03-10T13:03:40.510Z,10.74
2023-03-10T13:04:40.472Z,10.86
2023-03-10T13:05:40.459Z,10.86
2023-03-10T13:06:40.468Z,10.82
2023-03-10T13:07:40.427Z,10.89
2023-03-10T13:08:40.443Z,10.94
2023-03-10T13:09:40.418Z,11.08
2023-03-10T13:10:40.425Z,11.02
2023-03-10T13:11:40.399Z,11.04
2023-03-10T13:12:40.392Z,10.89
2023-03-10T13:13:40.366Z,10.90
2023-03-10T13:14:40.379Z,10.84
2023-03-10T13:15:40.371Z,10.82
2023-03-10T13:16:40.378Z,10.87
2023-03-10T13:17:40.335Z,10.92